My Meet Scores
Anna Preussner, Flipstar Gymnastics Academy - MyMeetScores.com
Top100 | Top Teams | Upcoming Meets | Completed Meets | Latest | Add Scores | Help| Support | Bookmark and Share

Anna Preussner, Flipstar Gymnastics Academy
Personal Bests
LevelVault BarsBeamFloorAA
48.8008.450 9.5009.20035.950
59.6009.150 8.9259.20036.275
79.0009.250 8.8509.42535.525
89.2509.200 9.3509.35036.975
99.2259.250 8.7759.00035.350
Meet Scores
Date Meet Team Session Level Division Vault Bars Beam Floor AA
2022-04-28 Region 5 Level 6-8 Regional Championship Flipstar Gymnastics Academy B01 8 Sr C2 9.250 5T 9.200 9 9.175 5T 9.350 5 36.975 3
2022-04-27 2022 Region 5 Level 6,7,8 Championships Flip Star Gymnastics Academy B01 8 Sr C2 9.250 5T 9.200 9 9.175 5T 9.350 5 36.975 3
2022-04-01 Level 6-7-8 State 2022 Flip Star Gymnastics Academy 04 8 Sr D 9.250 8 9.025 3 9.275 3 9.300 11T 36.850 3
2022-03-10 Lucky Invite Flip Star Gymnastics Academy A12 8 Older 8.800 12 8.900 4 9.350 2 9.100 11 36.150 5
2022-02-24 Region 5 - R5 Insider Classic Flip Star Gymnastics Academy R06 8 Sr B 9.225 3T 9.025 3 8.975 4 9.100 8 36.325 2
2022-02-18 BIG Classic 2022 Flipstar Gymnastics Academy 1A 8 Junior C 0.000 12T 8.725 5 9.000 1 8.900 8 26.625 11
2022-01-21 Circle of Stars Flipstar Gymnastics Academy B06 8 Sr B 8.550 9 8.575 6 8.925 4 8.900 9 34.950 4
2021-12-16 2021 Atlantis Crown Invitational Flipstar Gymnastics Academy 12 8 15+ yrs 9.250 1 9.025 1 9.050 2 9.025 4 36.350 1
2021-12-03 Flipstar's Home for the Holidays Flipstar Gymnastics Academy 3 8 Sr B 9.250 4 9.200 1 9.025 1 8.875 5T 36.350 2
2021-11-12 2021 Illinois NAWGJ Judges Cup Critique Meet IGI Gymnastics P01 8 All Ages 7.975 11 9.050 1 8.550 8T 9.125 4 34.700 3
2021-03-12 LUCKY INVITATIONAL Aerial Gymnastics Club A04 9 Jr B 0.000 7* 0.000 7* 0.000 7*
2021-02-26 Kinetic Classic 2021 Aerial Gymnastics Club 04 9 All 8.600 10 9.250 2 8.775 4T 8.725 5 35.350 4
2021-02-19 Women's Midwest Open 2021 Aerial Gymnastics Club 04B 9 All 9.225 4 7.950 6 8.225 5 9.000 3 34.400 5
2020-02-14 Midwest Open Aerial Gymnastics Club 03 8 Senior A 9.025 3 9.000 6 9.000 4 9.025 7 36.050 3
2020-01-24 Sand Dollar Invitational 2020 Aerial Gymnastics Club B04 8 Sr B 8.150 6 9.100 2 8.375 4 8.650 6 34.275 3
2020-01-10 St Jude Benefit Meet Aerial Gymnastics Club 9C 8 Sr B 8.350 8 7.650 3 0.000 11 0.000 9T 16.000 10
2019-03-29 Illinois Level 7 & 8 State Meet Aerial Gymnastics Club 9 7 Sr D 9.000 17T 9.000 8 7.450 23 9.075 19 34.525 22
2019-01-25 King Arthur Invitational Aerial Gymnastics Club 10 7 JR 0.000 13 8.950 5 7.700 10 8.650 12 25.300 12
2019-01-11 St Jude Benefit Meet Aerial Gymnastics Club 5B 7 Sr B 8.900 5 9.250 9 7.950 16 9.425 9T 35.525 8T
2018-12-14 Hawaiian Pineapple Classic Aerial Gymnastics Club 5A 7 Age13 8.900 4 8.300 6 8.850 7T 9.000 7 35.050 4T
2018-03-08 Level 4 & 5 State IGI Gymnastics 10 5 Sr C 9.500 2 8.775 11 8.925 14 8.850 9 36.050 7T
2018-02-09 IGI Chicago Style Gymnastics Meet IGI Gymnastics 14 5 213 Lake Shore Dr L5 D 9.450 2 8.300 11 8.200 14 8.350 14 34.300 11
2018-01-26 Usa Invitational IGI Gymnastics 6 5 SrB 9.500 1T 9.150 1 8.675 2 8.750 3 36.075 1
2018-01-12 St Jude Benefit Meet IGI Gymnastics 7A 5 SrA 9.450 3 9.000 3T 7.900 12 9.125 2 35.475 2
2017-12-08 St. Nick Invite IGI Gymnastics 4 5 SrB 9.600 1 8.825 6 8.650 9T 9.200 2 36.275 2
2017-11-17 SCGA Classic IGI Gymnastics 5 5 Sr 9.575 2 8.375 5 8.325 4 8.350 8 34.625 3
2017-05-05 2017 AAU Midwest Regionals IGI Gymnastics W5 4 Sr B 8.800 3 8.450 10 9.500 1 9.200 6 35.950 5
2017-02-10 IGI Chicago Style Gymnastics Meet IGI Gymnastics 632L 4 Sr 8.525 14 7.550 22 8.575 15 8.625 13 33.275 17
2017-01-28 Wisconsin Dells Gymnastics Vacation Classic - AAU IGI Gymnastics R3 4 Junior B 8.800 4 7.100 10T 8.650 6 8.700 6T 33.250 10
Get your scores on
a t-shirt, pin, or hoodie